sensor_id;sensor_type;location;lat;lon;timestamp;P1;durP1;ratioP1;P2;durP2;ratioP2
51020;SDS011;38907;45.562;8.856;2023-07-20T00:07:54;13.05;;;8.20;;
51020;SDS011;38907;45.562;8.856;2023-07-20T00:12:57;17.77;;;7.88;;
51020;SDS011;38907;45.562;8.856;2023-07-20T00:23:01;17.15;;;7.55;;
51020;SDS011;38907;45.562;8.856;2023-07-20T00:28:04;17.23;;;8.23;;
51020;SDS011;38907;45.562;8.856;2023-07-20T00:33:06;22.50;;;8.10;;
51020;SDS011;38907;45.562;8.856;2023-07-20T00:38:12;12.98;;;7.13;;
51020;SDS011;38907;45.562;8.856;2023-07-20T00:43:14;18.77;;;7.32;;
51020;SDS011;38907;45.562;8.856;2023-07-20T00:48:16;12.82;;;7.05;;
51020;SDS011;38907;45.562;8.856;2023-07-20T00:53:20;18.70;;;7.15;;
51020;SDS011;38907;45.562;8.856;2023-07-20T00:58:22;13.77;;;6.97;;
51020;SDS011;38907;45.562;8.856;2023-07-20T01:03:25;18.92;;;7.38;;
51020;SDS011;38907;45.562;8.856;2023-07-20T01:13:33;20.60;;;7.30;;
51020;SDS011;38907;45.562;8.856;2023-07-20T01:18:36;16.73;;;5.95;;
51020;SDS011;38907;45.562;8.856;2023-07-20T01:29:22;8.40;;;5.00;;
51020;SDS011;38907;45.562;8.856;2023-07-20T01:34:34;12.77;;;5.00;;
51020;SDS011;38907;45.562;8.856;2023-07-20T01:39:37;14.45;;;4.95;;
51020;SDS011;38907;45.562;8.856;2023-07-20T01:44:40;14.48;;;5.13;;
51020;SDS011;38907;45.562;8.856;2023-07-20T01:49:48;9.85;;;4.47;;
51020;SDS011;38907;45.562;8.856;2023-07-20T01:54:50;7.90;;;4.68;;
51020;SDS011;38907;45.562;8.856;2023-07-20T01:59:52;8.50;;;4.40;;
51020;SDS011;38907;45.562;8.856;2023-07-20T02:14:58;13.55;;;5.45;;
51020;SDS011;38907;45.562;8.856;2023-07-20T02:20:02;9.88;;;4.70;;
51020;SDS011;38907;45.562;8.856;2023-07-20T02:25:04;11.40;;;5.30;;
51020;SDS011;38907;45.562;8.856;2023-07-20T02:30:07;13.85;;;5.22;;
51020;SDS011;38907;45.562;8.856;2023-07-20T02:35:11;10.57;;;4.57;;
51020;SDS011;38907;45.562;8.856;2023-07-20T02:40:13;10.00;;;4.88;;
51020;SDS011;38907;45.562;8.856;2023-07-20T02:45:15;11.77;;;5.93;;
51020;SDS011;38907;45.562;8.856;2023-07-20T02:50:19;11.60;;;5.35;;
51020;SDS011;38907;45.562;8.856;2023-07-20T02:55:21;10.68;;;5.68;;
51020;SDS011;38907;45.562;8.856;2023-07-20T03:00:22;10.63;;;4.88;;
51020;SDS011;38907;45.562;8.856;2023-07-20T03:15:29;13.13;;;5.15;;
51020;SDS011;38907;45.562;8.856;2023-07-20T03:20:33;14.00;;;5.20;;
51020;SDS011;38907;45.562;8.856;2023-07-20T03:25:37;14.02;;;5.07;;
51020;SDS011;38907;45.562;8.856;2023-07-20T03:30:38;8.50;;;5.68;;
51020;SDS011;38907;45.562;8.856;2023-07-20T03:35:43;10.85;;;5.13;;
51020;SDS011;38907;45.562;8.856;2023-07-20T03:40:49;7.85;;;4.57;;
51020;SDS011;38907;45.562;8.856;2023-07-20T03:45:51;9.40;;;5.43;;
51020;SDS011;38907;45.562;8.856;2023-07-20T03:50:55;11.73;;;5.25;;
51020;SDS011;38907;45.562;8.856;2023-07-20T03:55:57;9.15;;;4.95;;
51020;SDS011;38907;45.562;8.856;2023-07-20T04:00:59;10.55;;;5.28;;
51020;SDS011;38907;45.562;8.856;2023-07-20T04:06:02;8.90;;;5.38;;
51020;SDS011;38907;45.562;8.856;2023-07-20T04:11:04;11.75;;;5.20;;
51020;SDS011;38907;45.562;8.856;2023-07-20T04:16:06;10.85;;;5.55;;
51020;SDS011;38907;45.562;8.856;2023-07-20T04:21:09;8.57;;;5.82;;
51020;SDS011;38907;45.562;8.856;2023-07-20T04:26:11;11.00;;;5.22;;
51020;SDS011;38907;45.562;8.856;2023-07-20T04:31:14;14.77;;;6.25;;
51020;SDS011;38907;45.562;8.856;2023-07-20T04:36:18;13.25;;;6.25;;
51020;SDS011;38907;45.562;8.856;2023-07-20T04:41:20;13.82;;;6.75;;
51020;SDS011;38907;45.562;8.856;2023-07-20T04:46:22;12.32;;;5.82;;
51020;SDS011;38907;45.562;8.856;2023-07-20T04:51:25;9.55;;;6.22;;
51020;SDS011;38907;45.562;8.856;2023-07-20T04:56:27;9.52;;;6.30;;
51020;SDS011;38907;45.562;8.856;2023-07-20T05:01:29;10.38;;;6.03;;
51020;SDS011;38907;45.562;8.856;2023-07-20T05:06:32;14.32;;;6.70;;
51020;SDS011;38907;45.562;8.856;2023-07-20T05:11:34;13.98;;;6.40;;
51020;SDS011;38907;45.562;8.856;2023-07-20T05:16:36;11.90;;;6.65;;
51020;SDS011;38907;45.562;8.856;2023-07-20T05:21:39;11.60;;;6.18;;
51020;SDS011;38907;45.562;8.856;2023-07-20T05:26:41;11.95;;;6.38;;
51020;SDS011;38907;45.562;8.856;2023-07-20T05:31:43;10.43;;;6.18;;
51020;SDS011;38907;45.562;8.856;2023-07-20T05:36:46;14.15;;;6.47;;
51020;SDS011;38907;45.562;8.856;2023-07-20T05:41:48;11.65;;;6.38;;
51020;SDS011;38907;45.562;8.856;2023-07-20T05:46:50;16.38;;;6.82;;
51020;SDS011;38907;45.562;8.856;2023-07-20T05:51:53;11.77;;;6.53;;
51020;SDS011;38907;45.562;8.856;2023-07-20T05:56:55;11.02;;;5.65;;
51020;SDS011;38907;45.562;8.856;2023-07-20T06:01:57;13.52;;;5.85;;
51020;SDS011;38907;45.562;8.856;2023-07-20T06:07:01;14.10;;;5.53;;
51020;SDS011;38907;45.562;8.856;2023-07-20T06:12:03;16.00;;;5.72;;
51020;SDS011;38907;45.562;8.856;2023-07-20T06:17:05;13.95;;;5.40;;
51020;SDS011;38907;45.562;8.856;2023-07-20T06:22:09;11.30;;;5.65;;
51020;SDS011;38907;45.562;8.856;2023-07-20T06:27:10;9.95;;;5.25;;
51020;SDS011;38907;45.562;8.856;2023-07-20T06:32:12;8.75;;;5.70;;
51020;SDS011;38907;45.562;8.856;2023-07-20T06:37:17;9.98;;;5.80;;
51020;SDS011;38907;45.562;8.856;2023-07-20T06:42:20;10.15;;;5.25;;
51020;SDS011;38907;45.562;8.856;2023-07-20T06:47:21;9.70;;;5.20;;
51020;SDS011;38907;45.562;8.856;2023-07-20T06:57:27;10.02;;;5.82;;
51020;SDS011;38907;45.562;8.856;2023-07-20T07:02:28;11.98;;;5.85;;
51020;SDS011;38907;45.562;8.856;2023-07-20T07:17:36;12.20;;;6.07;;
51020;SDS011;38907;45.562;8.856;2023-07-20T07:22:39;12.77;;;5.95;;
51020;SDS011;38907;45.562;8.856;2023-07-20T07:27:44;12.27;;;5.82;;
51020;SDS011;38907;45.562;8.856;2023-07-20T07:37:49;13.57;;;6.07;;
51020;SDS011;38907;45.562;8.856;2023-07-20T07:42:51;10.65;;;5.10;;
51020;SDS011;38907;45.562;8.856;2023-07-20T07:47:53;12.95;;;5.65;;
51020;SDS011;38907;45.562;8.856;2023-07-20T07:57:58;7.28;;;4.82;;
51020;SDS011;38907;45.562;8.856;2023-07-20T08:03:00;12.35;;;5.13;;
51020;SDS011;38907;45.562;8.856;2023-07-20T08:08:03;11.80;;;5.20;;
51020;SDS011;38907;45.562;8.856;2023-07-20T08:13:05;14.18;;;4.78;;
51020;SDS011;38907;45.562;8.856;2023-07-20T08:18:07;12.18;;;4.75;;
51020;SDS011;38907;45.562;8.856;2023-07-20T08:23:10;9.43;;;4.88;;
51020;SDS011;38907;45.562;8.856;2023-07-20T08:28:13;13.98;;;4.97;;
51020;SDS011;38907;45.562;8.856;2023-07-20T08:33:16;13.02;;;5.25;;
51020;SDS011;38907;45.562;8.856;2023-07-20T08:38:21;11.07;;;4.80;;
51020;SDS011;38907;45.562;8.856;2023-07-20T08:43:23;9.75;;;4.65;;
51020;SDS011;38907;45.562;8.856;2023-07-20T08:48:25;8.73;;;5.18;;
51020;SDS011;38907;45.562;8.856;2023-07-20T08:53:30;10.20;;;4.47;;
51020;SDS011;38907;45.562;8.856;2023-07-20T08:58:33;10.10;;;4.72;;
51020;SDS011;38907;45.562;8.856;2023-07-20T09:03:36;6.93;;;4.47;;
51020;SDS011;38907;45.562;8.856;2023-07-20T09:08:40;16.85;;;5.07;;
51020;SDS011;38907;45.562;8.856;2023-07-20T09:13:43;12.52;;;5.65;;
51020;SDS011;38907;45.562;8.856;2023-07-20T09:18:45;9.70;;;4.80;;
51020;SDS011;38907;45.562;8.856;2023-07-20T09:23:49;12.02;;;5.47;;
51020;SDS011;38907;45.562;8.856;2023-07-20T09:28:57;12.60;;;4.80;;
51020;SDS011;38907;45.562;8.856;2023-07-20T09:33:59;9.43;;;4.88;;
51020;SDS011;38907;45.562;8.856;2023-07-20T09:39:03;14.38;;;4.82;;
51020;SDS011;38907;45.562;8.856;2023-07-20T09:44:05;10.07;;;5.47;;
51020;SDS011;38907;45.562;8.856;2023-07-20T09:49:10;11.95;;;5.10;;
51020;SDS011;38907;45.562;8.856;2023-07-20T09:54:14;10.07;;;5.00;;
51020;SDS011;38907;45.562;8.856;2023-07-20T09:59:16;10.88;;;4.78;;
51020;SDS011;38907;45.562;8.856;2023-07-20T10:04:18;11.98;;;5.43;;
51020;SDS011;38907;45.562;8.856;2023-07-20T10:09:24;8.55;;;4.47;;
51020;SDS011;38907;45.562;8.856;2023-07-20T10:14:27;13.90;;;4.65;;
51020;SDS011;38907;45.562;8.856;2023-07-20T10:19:34;8.38;;;4.78;;
51020;SDS011;38907;45.562;8.856;2023-07-20T10:24:46;11.38;;;4.45;;
51020;SDS011;38907;45.562;8.856;2023-07-20T10:29:48;16.27;;;5.43;;
51020;SDS011;38907;45.562;8.856;2023-07-20T10:34:51;9.10;;;5.20;;
51020;SDS011;38907;45.562;8.856;2023-07-20T10:39:56;10.00;;;4.65;;
51020;SDS011;38907;45.562;8.856;2023-07-20T10:44:58;13.95;;;4.88;;
51020;SDS011;38907;45.562;8.856;2023-07-20T10:50:02;10.85;;;5.03;;
51020;SDS011;38907;45.562;8.856;2023-07-20T10:55:16;15.77;;;4.80;;
51020;SDS011;38907;45.562;8.856;2023-07-20T11:00:19;8.57;;;5.15;;
51020;SDS011;38907;45.562;8.856;2023-07-20T11:05:32;7.78;;;4.47;;
51020;SDS011;38907;45.562;8.856;2023-07-20T11:10:40;10.05;;;4.70;;
51020;SDS011;38907;45.562;8.856;2023-07-20T11:15:45;8.13;;;3.97;;
51020;SDS011;38907;45.562;8.856;2023-07-20T11:20:50;10.40;;;4.72;;
51020;SDS011;38907;45.562;8.856;2023-07-20T11:25:54;8.68;;;4.30;;
51020;SDS011;38907;45.562;8.856;2023-07-20T11:30:56;10.63;;;4.03;;
51020;SDS011;38907;45.562;8.856;2023-07-20T11:35:57;8.38;;;4.47;;
51020;SDS011;38907;45.562;8.856;2023-07-20T11:41:01;10.43;;;4.85;;
51020;SDS011;38907;45.562;8.856;2023-07-20T11:46:05;6.85;;;4.03;;
51020;SDS011;38907;45.562;8.856;2023-07-20T11:51:12;7.72;;;4.03;;
51020;SDS011;38907;45.562;8.856;2023-07-20T11:56:16;6.80;;;3.72;;
51020;SDS011;38907;45.562;8.856;2023-07-20T12:01:18;10.00;;;4.07;;
51020;SDS011;38907;45.562;8.856;2023-07-20T12:06:22;6.90;;;4.13;;
51020;SDS011;38907;45.562;8.856;2023-07-20T12:11:33;6.57;;;3.95;;
51020;SDS011;38907;45.562;8.856;2023-07-20T12:16:35;11.57;;;4.05;;
51020;SDS011;38907;45.562;8.856;2023-07-20T12:21:39;8.82;;;3.90;;
51020;SDS011;38907;45.562;8.856;2023-07-20T12:26:43;16.63;;;4.03;;
51020;SDS011;38907;45.562;8.856;2023-07-20T12:31:45;11.00;;;4.20;;
51020;SDS011;38907;45.562;8.856;2023-07-20T12:36:47;7.90;;;4.07;;
51020;SDS011;38907;45.562;8.856;2023-07-20T12:41:50;5.97;;;3.80;;
51020;SDS011;38907;45.562;8.856;2023-07-20T12:46:52;9.13;;;3.75;;
51020;SDS011;38907;45.562;8.856;2023-07-20T12:51:54;12.13;;;4.10;;
51020;SDS011;38907;45.562;8.856;2023-07-20T12:56:58;11.40;;;4.00;;
51020;SDS011;38907;45.562;8.856;2023-07-20T13:01:59;4.43;;;3.58;;
51020;SDS011;38907;45.562;8.856;2023-07-20T13:07:01;9.73;;;4.10;;
51020;SDS011;38907;45.562;8.856;2023-07-20T13:12:05;9.25;;;4.43;;
51020;SDS011;38907;45.562;8.856;2023-07-20T13:17:08;16.25;;;5.18;;
51020;SDS011;38907;45.562;8.856;2023-07-20T13:22:10;9.15;;;3.88;;
51020;SDS011;38907;45.562;8.856;2023-07-20T13:27:15;6.22;;;3.63;;
51020;SDS011;38907;45.562;8.856;2023-07-20T13:32:18;12.10;;;3.60;;
51020;SDS011;38907;45.562;8.856;2023-07-20T13:37:20;9.88;;;3.92;;
51020;SDS011;38907;45.562;8.856;2023-07-20T13:42:23;5.75;;;3.60;;
51020;SDS011;38907;45.562;8.856;2023-07-20T13:47:25;9.13;;;4.68;;
51020;SDS011;38907;45.562;8.856;2023-07-20T13:52:28;8.50;;;4.30;;
51020;SDS011;38907;45.562;8.856;2023-07-20T13:57:31;9.85;;;4.95;;
51020;SDS011;38907;45.562;8.856;2023-07-20T14:02:33;10.38;;;4.50;;
51020;SDS011;38907;45.562;8.856;2023-07-20T14:07:35;9.13;;;4.45;;
51020;SDS011;38907;45.562;8.856;2023-07-20T14:12:38;11.02;;;4.80;;
51020;SDS011;38907;45.562;8.856;2023-07-20T14:17:40;12.13;;;5.53;;
51020;SDS011;38907;45.562;8.856;2023-07-20T14:22:42;10.95;;;5.00;;
51020;SDS011;38907;45.562;8.856;2023-07-20T14:27:45;8.38;;;5.63;;
51020;SDS011;38907;45.562;8.856;2023-07-20T14:32:47;7.22;;;4.50;;
51020;SDS011;38907;45.562;8.856;2023-07-20T14:37:49;8.65;;;4.97;;
51020;SDS011;38907;45.562;8.856;2023-07-20T14:42:52;8.20;;;5.13;;
51020;SDS011;38907;45.562;8.856;2023-07-20T14:47:55;7.57;;;4.75;;
51020;SDS011;38907;45.562;8.856;2023-07-20T14:52:59;9.55;;;4.95;;
51020;SDS011;38907;45.562;8.856;2023-07-20T14:58:02;11.40;;;5.30;;
51020;SDS011;38907;45.562;8.856;2023-07-20T15:03:04;10.35;;;5.25;;
51020;SDS011;38907;45.562;8.856;2023-07-20T15:08:05;9.95;;;5.22;;
51020;SDS011;38907;45.562;8.856;2023-07-20T15:13:09;13.80;;;5.53;;
51020;SDS011;38907;45.562;8.856;2023-07-20T15:18:11;9.25;;;4.72;;
51020;SDS011;38907;45.562;8.856;2023-07-20T15:23:13;6.30;;;4.63;;
51020;SDS011;38907;45.562;8.856;2023-07-20T15:28:16;8.75;;;4.57;;
51020;SDS011;38907;45.562;8.856;2023-07-20T15:33:18;12.90;;;5.25;;
51020;SDS011;38907;45.562;8.856;2023-07-20T15:38:20;12.32;;;4.85;;
51020;SDS011;38907;45.562;8.856;2023-07-20T15:43:24;6.25;;;4.03;;
51020;SDS011;38907;45.562;8.856;2023-07-20T15:48:26;10.18;;;5.38;;
51020;SDS011;38907;45.562;8.856;2023-07-20T15:53:27;7.65;;;4.78;;
51020;SDS011;38907;45.562;8.856;2023-07-20T15:58:31;9.23;;;5.13;;
51020;SDS011;38907;45.562;8.856;2023-07-20T16:03:33;13.75;;;4.93;;
51020;SDS011;38907;45.562;8.856;2023-07-20T16:08:35;10.23;;;4.30;;
51020;SDS011;38907;45.562;8.856;2023-07-20T16:13:38;9.98;;;4.60;;
51020;SDS011;38907;45.562;8.856;2023-07-20T16:18:40;8.02;;;4.72;;
51020;SDS011;38907;45.562;8.856;2023-07-20T16:23:42;8.63;;;4.25;;
51020;SDS011;38907;45.562;8.856;2023-07-20T16:28:46;13.63;;;4.20;;
51020;SDS011;38907;45.562;8.856;2023-07-20T16:33:47;10.25;;;4.20;;
51020;SDS011;38907;45.562;8.856;2023-07-20T16:38:49;8.10;;;4.07;;
51020;SDS011;38907;45.562;8.856;2023-07-20T16:43:53;14.50;;;4.43;;
51020;SDS011;38907;45.562;8.856;2023-07-20T16:48:55;6.65;;;4.10;;
51020;SDS011;38907;45.562;8.856;2023-07-20T16:53:56;7.28;;;4.20;;
51020;SDS011;38907;45.562;8.856;2023-07-20T16:59:00;10.75;;;4.97;;
51020;SDS011;38907;45.562;8.856;2023-07-20T17:04:03;10.20;;;4.30;;
51020;SDS011;38907;45.562;8.856;2023-07-20T17:09:05;11.27;;;4.10;;
51020;SDS011;38907;45.562;8.856;2023-07-20T17:14:08;11.25;;;4.93;;
51020;SDS011;38907;45.562;8.856;2023-07-20T17:19:11;7.13;;;4.70;;
51020;SDS011;38907;45.562;8.856;2023-07-20T17:24:13;8.10;;;4.43;;
51020;SDS011;38907;45.562;8.856;2023-07-20T17:29:20;7.97;;;4.55;;
51020;SDS011;38907;45.562;8.856;2023-07-20T17:39:28;5.32;;;4.38;;
51020;SDS011;38907;45.562;8.856;2023-07-20T17:44:32;10.35;;;4.45;;
51020;SDS011;38907;45.562;8.856;2023-07-20T17:49:34;10.88;;;4.82;;
51020;SDS011;38907;45.562;8.856;2023-07-20T17:54:36;12.32;;;5.10;;
51020;SDS011;38907;45.562;8.856;2023-07-20T17:59:40;10.35;;;4.97;;
51020;SDS011;38907;45.562;8.856;2023-07-20T18:04:42;11.95;;;4.50;;
51020;SDS011;38907;45.562;8.856;2023-07-20T18:09:44;10.52;;;4.90;;
51020;SDS011;38907;45.562;8.856;2023-07-20T18:14:48;8.85;;;5.07;;
51020;SDS011;38907;45.562;8.856;2023-07-20T18:19:49;15.27;;;5.10;;
51020;SDS011;38907;45.562;8.856;2023-07-20T18:24:51;14.35;;;5.45;;
51020;SDS011;38907;45.562;8.856;2023-07-20T18:29:54;11.50;;;4.97;;
51020;SDS011;38907;45.562;8.856;2023-07-20T18:34:56;13.13;;;5.03;;
51020;SDS011;38907;45.562;8.856;2023-07-20T18:39:58;11.30;;;4.97;;
51020;SDS011;38907;45.562;8.856;2023-07-20T18:45:02;6.07;;;4.18;;
51020;SDS011;38907;45.562;8.856;2023-07-20T18:50:05;10.95;;;4.68;;
51020;SDS011;38907;45.562;8.856;2023-07-20T18:55:09;10.00;;;4.45;;
51020;SDS011;38907;45.562;8.856;2023-07-20T19:00:13;12.10;;;4.63;;
51020;SDS011;38907;45.562;8.856;2023-07-20T19:05:17;16.60;;;5.15;;
51020;SDS011;38907;45.562;8.856;2023-07-20T19:10:19;13.75;;;4.80;;
51020;SDS011;38907;45.562;8.856;2023-07-20T19:15:24;21.15;;;5.15;;
51020;SDS011;38907;45.562;8.856;2023-07-20T19:20:26;11.85;;;5.05;;
51020;SDS011;38907;45.562;8.856;2023-07-20T19:25:28;12.95;;;4.88;;
51020;SDS011;38907;45.562;8.856;2023-07-20T19:30:32;23.52;;;6.35;;
51020;SDS011;38907;45.562;8.856;2023-07-20T19:35:35;21.10;;;5.50;;
51020;SDS011;38907;45.562;8.856;2023-07-20T19:40:38;22.20;;;6.28;;
51020;SDS011;38907;45.562;8.856;2023-07-20T19:45:41;19.17;;;6.40;;
51020;SDS011;38907;45.562;8.856;2023-07-20T19:50:44;10.32;;;5.18;;
51020;SDS011;38907;45.562;8.856;2023-07-20T19:55:48;12.93;;;5.45;;
51020;SDS011;38907;45.562;8.856;2023-07-20T20:00:51;14.05;;;6.00;;
51020;SDS011;38907;45.562;8.856;2023-07-20T20:05:53;18.98;;;6.95;;
51020;SDS011;38907;45.562;8.856;2023-07-20T20:10:55;17.42;;;6.72;;
51020;SDS011;38907;45.562;8.856;2023-07-20T20:15:58;11.13;;;6.72;;
51020;SDS011;38907;45.562;8.856;2023-07-20T20:21:00;12.60;;;6.38;;
51020;SDS011;38907;45.562;8.856;2023-07-20T20:26:05;11.57;;;7.40;;
51020;SDS011;38907;45.562;8.856;2023-07-20T20:31:08;12.57;;;6.90;;
51020;SDS011;38907;45.562;8.856;2023-07-20T20:36:10;14.02;;;7.00;;
51020;SDS011;38907;45.562;8.856;2023-07-20T20:41:13;12.90;;;7.05;;
51020;SDS011;38907;45.562;8.856;2023-07-20T20:46:16;11.82;;;7.00;;
51020;SDS011;38907;45.562;8.856;2023-07-20T20:51:20;10.63;;;6.82;;
51020;SDS011;38907;45.562;8.856;2023-07-20T20:56:22;12.90;;;6.55;;
51020;SDS011;38907;45.562;8.856;2023-07-20T21:01:25;8.98;;;5.63;;
51020;SDS011;38907;45.562;8.856;2023-07-20T21:06:27;9.93;;;5.55;;
51020;SDS011;38907;45.562;8.856;2023-07-20T21:11:29;9.55;;;6.53;;
51020;SDS011;38907;45.562;8.856;2023-07-20T21:16:33;10.48;;;5.82;;
51020;SDS011;38907;45.562;8.856;2023-07-20T21:21:34;9.88;;;6.13;;
51020;SDS011;38907;45.562;8.856;2023-07-20T21:26:37;13.52;;;6.90;;
51020;SDS011;38907;45.562;8.856;2023-07-20T21:31:41;10.85;;;7.00;;
51020;SDS011;38907;45.562;8.856;2023-07-20T21:36:45;11.13;;;7.30;;
51020;SDS011;38907;45.562;8.856;2023-07-20T21:41:47;10.38;;;6.53;;
51020;SDS011;38907;45.562;8.856;2023-07-20T21:51:52;14.63;;;6.97;;
51020;SDS011;38907;45.562;8.856;2023-07-20T22:01:57;16.25;;;7.60;;
51020;SDS011;38907;45.562;8.856;2023-07-20T22:06:59;9.82;;;6.50;;
51020;SDS011;38907;45.562;8.856;2023-07-20T22:17:05;10.25;;;7.03;;
51020;SDS011;38907;45.562;8.856;2023-07-20T22:22:07;11.77;;;7.80;;
51020;SDS011;38907;45.562;8.856;2023-07-20T22:27:10;15.77;;;8.48;;
51020;SDS011;38907;45.562;8.856;2023-07-20T22:32:13;12.15;;;8.13;;
51020;SDS011;38907;45.562;8.856;2023-07-20T22:37:15;15.13;;;7.25;;
51020;SDS011;38907;45.562;8.856;2023-07-20T22:42:17;9.73;;;7.20;;
51020;SDS011;38907;45.562;8.856;2023-07-20T22:47:21;15.52;;;8.52;;
51020;SDS011;38907;45.562;8.856;2023-07-20T22:52:23;11.05;;;7.82;;
51020;SDS011;38907;45.562;8.856;2023-07-20T23:02:28;14.27;;;8.20;;
51020;SDS011;38907;45.562;8.856;2023-07-20T23:07:30;16.25;;;7.70;;
51020;SDS011;38907;45.562;8.856;2023-07-20T23:12:32;12.13;;;7.53;;
51020;SDS011;38907;45.562;8.856;2023-07-20T23:17:35;10.82;;;7.88;;
51020;SDS011;38907;45.562;8.856;2023-07-20T23:22:37;10.23;;;7.43;;
51020;SDS011;38907;45.562;8.856;2023-07-20T23:27:39;11.32;;;7.43;;
51020;SDS011;38907;45.562;8.856;2023-07-20T23:32:42;10.60;;;7.43;;
51020;SDS011;38907;45.562;8.856;2023-07-20T23:37:44;13.27;;;7.70;;
51020;SDS011;38907;45.562;8.856;2023-07-20T23:42:47;12.27;;;8.23;;
51020;SDS011;38907;45.562;8.856;2023-07-20T23:47:50;12.50;;;7.32;;
51020;SDS011;38907;45.562;8.856;2023-07-20T23:52:52;13.25;;;8.00;;
51020;SDS011;38907;45.562;8.856;2023-07-20T23:57:54;12.05;;;8.30;;
